createdAt,value
2018-07-01T00:00:52.374Z,102007.20
2018-07-01T00:03:56.849Z,102005.45
2018-07-01T00:07:01.285Z,102003.53
2018-07-01T00:10:07.433Z,101999.98
2018-07-01T00:13:11.861Z,102008.92
2018-07-01T00:16:16.331Z,102005.48
2018-07-01T00:19:20.789Z,102008.03
2018-07-01T00:22:25.261Z,102011.53
2018-07-01T00:25:29.713Z,102010.08
2018-07-01T00:28:34.429Z,102008.36
2018-07-01T00:31:38.872Z,102010.34
2018-07-01T00:34:43.026Z,102018.48
2018-07-01T00:37:47.473Z,102018.30
2018-07-01T00:40:52.073Z,102014.84
2018-07-01T00:43:56.499Z,102006.23
2018-07-01T00:47:00.985Z,102003.08
2018-07-01T00:50:06.951Z,102008.36
2018-07-01T00:53:11.694Z,102007.94
2018-07-01T00:56:16.306Z,102005.00
2018-07-01T00:59:21.219Z,102001.45
2018-07-01T01:02:25.985Z,101996.30
2018-07-01T01:05:30.693Z,101991.69
2018-07-01T01:08:35.288Z,101991.81
2018-07-01T01:11:40.287Z,101987.17
2018-07-01T01:14:45.799Z,101992.11
2018-07-01T01:17:50.855Z,101999.27
2018-07-01T01:20:55.444Z,101996.59
2018-07-01T01:24:00.177Z,101991.14
2018-07-01T01:27:04.910Z,101994.62
2018-07-01T01:30:09.502Z,101995.34
2018-07-01T01:33:14.066Z,101996.62
2018-07-01T01:36:18.859Z,101998.91
2018-07-01T01:39:29.642Z,101995.55
2018-07-01T01:43:44.393Z,101998.83
2018-07-01T01:46:53.327Z,102004.80
2018-07-01T01:50:02.241Z,102008.45
2018-07-01T01:53:13.224Z,102010.45
2018-07-01T01:56:24.982Z,102015.80
2018-07-01T01:59:40.625Z,102019.47
2018-07-01T02:02:53.040Z,102023.84
2018-07-01T02:06:01.553Z,102020.91
2018-07-01T02:09:13.027Z,102021.97
2018-07-01T02:12:18.104Z,102022.89
2018-07-01T02:15:26.242Z,102018.70
2018-07-01T02:18:31.081Z,102027.51
2018-07-01T02:21:36.133Z,102026.43
2018-07-01T02:24:43.696Z,102030.94
2018-07-01T02:27:48.677Z,102028.31
2018-07-01T02:30:53.439Z,102035.03
2018-07-01T02:33:58.269Z,102037.63
2018-07-01T02:37:03.055Z,102038.03
2018-07-01T02:40:08.555Z,102032.48
2018-07-01T02:43:13.482Z,102030.98
2018-07-01T02:46:18.114Z,102036.41
2018-07-01T02:49:22.777Z,102037.26
2018-07-01T02:52:27.490Z,102039.34
2018-07-01T02:55:32.179Z,102032.42
2018-07-01T02:58:36.799Z,102038.08
2018-07-01T03:01:41.418Z,102040.16
2018-07-01T03:04:46.194Z,102049.90
2018-07-01T03:07:50.927Z,102050.55
2018-07-01T03:10:55.755Z,102053.27
2018-07-01T03:14:00.681Z,102051.05
2018-07-01T03:17:05.609Z,102049.90
2018-07-01T03:20:10.694Z,102055.34
2018-07-01T03:23:16.384Z,102052.42
2018-07-01T03:26:21.067Z,102053.78
2018-07-01T03:29:26.120Z,102054.42
2018-07-01T03:32:30.850Z,102060.39
2018-07-01T03:35:35.630Z,102062.16
2018-07-01T03:38:40.271Z,102062.09
2018-07-01T03:41:45.028Z,102064.72
2018-07-01T03:44:50.050Z,102067.16
2018-07-01T03:47:54.713Z,102076.81
2018-07-01T03:50:59.447Z,102070.44
2018-07-01T03:54:04.274Z,102080.52
2018-07-01T03:57:09.014Z,102077.62
2018-07-01T04:00:13.579Z,102078.16
2018-07-01T04:03:18.187Z,102081.42
2018-07-01T04:06:22.941Z,102083.44
2018-07-01T04:09:31.732Z,102081.86
2018-07-01T04:12:36.498Z,102079.54
2018-07-01T04:15:41.114Z,102086.17
2018-07-01T04:18:46.302Z,102095.33
2018-07-01T04:21:51.020Z,102092.11
2018-07-01T04:24:55.721Z,102090.34
2018-07-01T04:28:00.214Z,102101.91
2018-07-01T04:31:04.926Z,102111.37
2018-07-01T04:34:09.490Z,102101.83
2018-07-01T04:37:14.208Z,102111.41
2018-07-01T04:40:18.901Z,102109.16
2018-07-01T04:43:23.541Z,102109.59
2018-07-01T04:46:28.168Z,102113.56
2018-07-01T04:49:32.749Z,102105.88
2018-07-01T04:52:37.554Z,102109.52
2018-07-01T04:55:42.235Z,102114.75
2018-07-01T04:58:47.072Z,102111.47
2018-07-01T05:01:51.887Z,102117.41
2018-07-01T05:04:56.474Z,102115.75
2018-07-01T05:08:01.503Z,102112.66
2018-07-01T05:11:06.265Z,102115.84
2018-07-01T05:14:10.863Z,102114.08
2018-07-01T05:17:15.870Z,102118.23
2018-07-01T05:20:20.438Z,102110.90
2018-07-01T05:23:24.781Z,102111.85
2018-07-01T05:26:29.675Z,102112.87
2018-07-01T05:29:34.349Z,102110.17
2018-07-01T05:32:39.155Z,102098.09
2018-07-01T05:35:43.777Z,102107.11
2018-07-01T05:38:48.759Z,102108.65
2018-07-01T05:41:53.545Z,102110.70
2018-07-01T05:44:58.392Z,102114.51
2018-07-01T05:48:02.955Z,102115.23
2018-07-01T05:51:07.755Z,102114.76
2018-07-01T05:54:12.716Z,102117.92
2018-07-01T05:57:17.475Z,102111.79
2018-07-01T06:00:22.389Z,102107.02
2018-07-01T06:03:28.303Z,102113.14
2018-07-01T06:06:46.015Z,102112.62
2018-07-01T06:09:50.928Z,102118.47
2018-07-01T06:12:55.920Z,102117.17
2018-07-01T06:16:06.327Z,102119.80
2018-07-01T06:19:17.630Z,102120.82
2018-07-01T06:22:23.071Z,102119.50
2018-07-01T06:25:44.336Z,102119.55
2018-07-01T06:28:55.809Z,102124.45
2018-07-01T06:32:16.333Z,102127.19
2018-07-01T06:37:09.811Z,102127.66
2018-07-01T07:07:44.832Z,102141.97
2018-07-01T07:10:49.413Z,102143.54
2018-07-01T07:13:53.805Z,102139.35
2018-07-01T07:16:58.201Z,102138.17
2018-07-01T07:20:02.741Z,102142.45
2018-07-01T07:23:07.328Z,102145.63
2018-07-01T07:26:11.697Z,102145.25
2018-07-01T07:29:16.072Z,102148.98
2018-07-01T07:32:20.430Z,102148.61
2018-07-01T07:35:24.976Z,102148.28
2018-07-01T07:38:29.345Z,102147.59
2018-07-01T07:41:33.544Z,102147.69
2018-07-01T07:44:37.894Z,102145.16
2018-07-01T07:47:42.253Z,102148.59
2018-07-01T07:50:46.628Z,102151.79
2018-07-01T07:53:51.042Z,102153.25
2018-07-01T07:56:55.459Z,102157.54
2018-07-01T07:59:59.964Z,102149.70
2018-07-01T08:03:04.677Z,102155.56
2018-07-01T08:06:09.146Z,102155.34
2018-07-01T08:09:13.789Z,102151.00
2018-07-01T08:12:18.207Z,102151.26
2018-07-01T08:15:22.594Z,102157.98
2018-07-01T08:18:26.994Z,102157.58
2018-07-01T08:21:31.971Z,102155.99
2018-07-01T08:24:36.613Z,102154.47
2018-07-01T08:27:40.977Z,102153.67
2018-07-01T08:30:45.348Z,102150.44
2018-07-01T08:33:49.708Z,102149.86
2018-07-01T08:36:54.096Z,102147.70
2018-07-01T08:39:58.560Z,102151.13
2018-07-01T08:43:02.951Z,102152.05
2018-07-01T08:46:07.345Z,102148.25
2018-07-01T08:49:11.713Z,102150.77
2018-07-01T08:52:16.608Z,102155.53
2018-07-01T08:55:21.655Z,102147.25
2018-07-01T08:58:28.340Z,102153.11
2018-07-01T09:01:34.353Z,102148.41
2018-07-01T09:04:39.190Z,102145.36
2018-07-01T09:07:43.762Z,102148.98
2018-07-01T09:10:48.721Z,102139.82
2018-07-01T09:13:53.744Z,102148.70
2018-07-01T09:16:59.734Z,102141.20
2018-07-01T09:20:05.426Z,102143.16
2018-07-01T09:23:11.486Z,102137.59
2018-07-01T09:26:17.323Z,102140.94
2018-07-01T09:29:23.099Z,102143.14
2018-07-01T09:32:28.666Z,102140.92
2018-07-01T09:35:33.167Z,102140.35
2018-07-01T09:38:37.691Z,102138.67
2018-07-01T09:41:42.210Z,102138.39
2018-07-01T09:44:46.730Z,102147.02
2018-07-01T09:47:51.249Z,102140.33
2018-07-01T09:50:56.965Z,102136.19
2018-07-01T09:54:01.965Z,102140.34
2018-07-01T09:57:06.482Z,102143.65
2018-07-01T10:00:11.001Z,102139.73
2018-07-01T10:03:15.617Z,102142.47
2018-07-01T10:06:19.767Z,102145.52
2018-07-01T10:09:24.382Z,102152.23
2018-07-01T10:12:28.798Z,102146.68
2018-07-01T10:15:33.228Z,102144.19
2018-07-01T10:18:38.254Z,102136.92
2018-07-01T10:21:42.680Z,102140.22
2018-07-01T10:24:47.105Z,102139.08
2018-07-01T10:27:51.529Z,102133.25
2018-07-01T10:30:55.938Z,102139.39
2018-07-01T10:34:00.443Z,102134.62
2018-07-01T10:37:04.917Z,102137.66
2018-07-01T10:40:09.399Z,102141.80
2018-07-01T10:43:13.824Z,102130.92
2018-07-01T10:46:18.004Z,102129.93
2018-07-01T10:49:22.434Z,102133.44
2018-07-01T10:52:26.905Z,102130.02
2018-07-01T10:55:31.338Z,102117.52
2018-07-01T10:58:35.794Z,102112.42
2018-07-01T11:01:40.225Z,102114.16
2018-07-01T11:04:44.764Z,102105.05
2018-07-01T11:07:49.224Z,102113.99
2018-07-01T11:10:53.701Z,102108.59
2018-07-01T11:13:58.169Z,102111.58
2018-07-01T11:17:02.650Z,102102.42
2018-07-01T11:20:07.277Z,102098.54
2018-07-01T11:23:11.772Z,102102.07
2018-07-01T11:26:16.341Z,102098.59
2018-07-01T11:29:21.276Z,102105.94
2018-07-01T11:32:26.193Z,102103.09
2018-07-01T11:35:31.721Z,102102.71
2018-07-01T11:38:37.919Z,102093.66
2018-07-01T11:41:42.588Z,102091.11
2018-07-01T11:44:46.981Z,102091.63
2018-07-01T11:47:51.425Z,102091.07
2018-07-01T11:50:55.965Z,102085.28
2018-07-01T11:54:00.362Z,102084.44
2018-07-01T11:57:04.949Z,102090.03
2018-07-01T12:00:09.788Z,102093.72
2018-07-01T12:03:14.193Z,102089.09
2018-07-01T12:06:18.681Z,102084.63
2018-07-01T12:09:23.141Z,102089.90
2018-07-01T12:12:27.560Z,102096.05
2018-07-01T12:15:31.995Z,102085.23
2018-07-01T12:18:36.477Z,102094.45
2018-07-01T12:21:40.934Z,102086.36
2018-07-01T12:24:45.385Z,102083.61
2018-07-01T12:27:49.858Z,102090.56
2018-07-01T12:30:54.344Z,102092.81
2018-07-01T12:33:58.463Z,102082.52
2018-07-01T12:37:02.873Z,102073.05
2018-07-01T12:40:07.426Z,102076.36
2018-07-01T12:43:11.917Z,102068.30
2018-07-01T12:46:16.386Z,102076.07
2018-07-01T12:49:20.865Z,102076.91
2018-07-01T12:52:26.530Z,102083.87
2018-07-01T12:55:32.006Z,102088.38
2018-07-01T12:58:36.473Z,102065.89
2018-07-01T13:01:40.918Z,102094.02
2018-07-01T13:04:46.684Z,102079.09
2018-07-01T13:07:52.338Z,102068.27
2018-07-01T13:10:59.073Z,102074.11
2018-07-01T13:14:05.474Z,102075.48
2018-07-01T13:17:10.385Z,102072.14
2018-07-01T13:20:14.902Z,102059.63
2018-07-01T13:23:21.530Z,102055.11
2018-07-01T13:26:26.153Z,102055.67
2018-07-01T13:29:30.632Z,102050.38
2018-07-01T13:32:35.185Z,102054.00
2018-07-01T13:35:39.722Z,102059.56
2018-07-01T13:38:45.369Z,102056.75
2018-07-01T13:41:51.509Z,102056.73
2018-07-01T13:44:58.143Z,102056.36
2018-07-01T13:48:04.390Z,102051.84
2018-07-01T13:51:09.510Z,102046.77
2018-07-01T13:54:14.385Z,102050.36
2018-07-01T13:57:20.826Z,102043.63
2018-07-01T14:00:29.056Z,102040.27
2018-07-01T14:03:34.318Z,102045.21
2018-07-01T14:06:39.750Z,102044.04
2018-07-01T14:09:45.050Z,102035.69
2018-07-01T14:12:49.677Z,102043.97
2018-07-01T14:15:57.015Z,102034.55
2018-07-01T14:19:02.689Z,102040.45
2018-07-01T14:22:10.915Z,102035.10
2018-07-01T14:25:21.597Z,102030.42
2018-07-01T14:28:31.162Z,102031.94
2018-07-01T14:31:49.106Z,102021.35
2018-07-01T14:34:58.777Z,102018.94
2018-07-01T14:38:04.594Z,102021.30
2018-07-01T14:41:09.808Z,102021.59
2018-07-01T14:44:16.133Z,102019.64
2018-07-01T14:47:22.213Z,102024.86
2018-07-01T14:50:27.880Z,102014.62
2018-07-01T14:53:34.818Z,102019.45
2018-07-01T14:56:40.325Z,102011.12
2018-07-01T14:59:46.558Z,102011.68
2018-07-01T15:02:52.766Z,102008.10
2018-07-01T15:05:57.738Z,102006.36
2018-07-01T15:09:03.289Z,102004.05
2018-07-01T15:12:13.270Z,102004.88
2018-07-01T15:15:18.290Z,101995.77
2018-07-01T15:18:23.634Z,101997.55
2018-07-01T15:21:28.926Z,101995.70
2018-07-01T15:24:33.952Z,101983.97
2018-07-01T15:27:38.530Z,101983.89
2018-07-01T15:30:43.073Z,101981.52
2018-07-01T15:33:47.544Z,101984.56
2018-07-01T15:36:51.693Z,101970.83
2018-07-01T15:39:56.177Z,101975.19
2018-07-01T15:43:00.605Z,101978.08
2018-07-01T15:46:05.862Z,101981.74
2018-07-01T15:49:10.266Z,101975.34
2018-07-01T15:52:14.763Z,101964.70
2018-07-01T15:55:19.273Z,101971.66
2018-07-01T15:58:23.690Z,101964.86
2018-07-01T16:01:28.143Z,101962.55
2018-07-01T16:04:32.574Z,101974.34
2018-07-01T16:07:37.130Z,101962.72
2018-07-01T16:10:41.561Z,101958.66
2018-07-01T16:13:45.964Z,101965.55
2018-07-01T16:16:50.500Z,101954.38
2018-07-01T16:19:54.942Z,101953.11
2018-07-01T16:22:59.344Z,101961.27
2018-07-01T16:26:09.030Z,101954.54
2018-07-01T16:29:13.417Z,101951.87
2018-07-01T16:32:17.823Z,101951.11
2018-07-01T16:35:22.300Z,101948.00
2018-07-01T16:38:26.712Z,101940.45
2018-07-01T16:41:31.075Z,101937.05
2018-07-01T16:44:49.596Z,101938.28
2018-07-01T16:48:00.111Z,101928.16
2018-07-01T16:51:06.666Z,101934.09
2018-07-01T16:54:18.132Z,101945.58
2018-07-01T17:01:14.329Z,101925.98
2018-07-01T17:04:19.213Z,101934.06
2018-07-01T17:07:23.642Z,101933.56
2018-07-01T17:10:28.075Z,101939.70
2018-07-01T17:13:40.537Z,101935.28
2018-07-01T17:16:56.554Z,101931.41
2018-07-01T17:20:01.028Z,101928.93
2018-07-01T17:23:05.449Z,101933.39
2018-07-01T17:26:09.908Z,101930.60
2018-07-01T17:29:14.377Z,101926.45
2018-07-01T17:32:23.880Z,101931.44
2018-07-01T17:35:28.882Z,101938.37
2018-07-01T17:38:33.329Z,101941.44
2018-07-01T17:41:38.076Z,101938.09
2018-07-01T17:44:42.489Z,101933.41
2018-07-01T17:47:46.892Z,101933.40
2018-07-01T17:50:51.297Z,101929.21
2018-07-01T17:53:57.427Z,101917.28
2018-07-01T17:57:01.842Z,101928.39
2018-07-01T18:00:07.564Z,101928.10
2018-07-01T18:03:12.009Z,101931.45
2018-07-01T18:06:16.616Z,101936.17
2018-07-01T18:09:21.060Z,101933.11
2018-07-01T18:12:25.592Z,101934.21
2018-07-01T18:15:30.265Z,101942.81
2018-07-01T18:18:34.850Z,101934.47
2018-07-01T18:21:41.213Z,101937.20
2018-07-01T18:25:01.540Z,101938.02
2018-07-01T18:27:56.131Z,101928.31
2018-07-01T18:30:52.480Z,101929.93
2018-07-01T18:33:56.860Z,101927.17
2018-07-01T18:37:01.390Z,101933.52
2018-07-01T18:40:06.085Z,101938.22
2018-07-01T18:43:10.424Z,101936.81
2018-07-01T18:46:14.945Z,101929.60
2018-07-01T18:49:19.296Z,101932.32
2018-07-01T18:52:23.673Z,101927.03
2018-07-01T18:55:28.093Z,101934.15
2018-07-01T18:58:32.457Z,101932.77
2018-07-01T19:01:36.925Z,101934.13
2018-07-01T19:04:41.268Z,101934.39
2018-07-01T19:07:45.640Z,101935.47
2018-07-01T19:10:50.016Z,101941.23
2018-07-01T19:13:54.480Z,101942.84
2018-07-01T19:16:59.044Z,101944.77
2018-07-01T19:20:03.445Z,101935.94
2018-07-01T19:23:07.821Z,101939.50
2018-07-01T19:26:12.225Z,101936.70
2018-07-01T19:29:16.583Z,101940.27
2018-07-01T19:32:21.260Z,101938.84
2018-07-01T19:35:25.612Z,101936.29
2018-07-01T19:38:30.405Z,101939.55
2018-07-01T19:41:34.808Z,101939.14
2018-07-01T19:44:39.175Z,101935.73
2018-07-01T19:47:43.562Z,101933.41
2018-07-01T19:50:47.974Z,101939.97
2018-07-01T19:53:52.350Z,101935.98
2018-07-01T19:56:56.977Z,101940.90
2018-07-01T20:00:01.558Z,101940.50
2018-07-01T20:03:05.953Z,101943.38
2018-07-01T20:06:10.406Z,101939.06
2018-07-01T20:09:15.073Z,101949.08
2018-07-01T20:12:19.516Z,101949.17
2018-07-01T20:15:23.852Z,101950.88
2018-07-01T20:18:28.779Z,101950.36
2018-07-01T20:21:33.347Z,101952.28
2018-07-01T20:24:37.763Z,101958.69
2018-07-01T20:27:42.125Z,101965.12
2018-07-01T20:30:46.517Z,101956.98
2018-07-01T20:33:50.873Z,101963.43
2018-07-01T20:36:55.511Z,101960.23
2018-07-01T20:40:00.140Z,101953.19
2018-07-01T20:43:04.551Z,101958.56
2018-07-01T20:46:09.377Z,101959.70
2018-07-01T20:49:13.767Z,101955.06
2018-07-01T20:52:18.178Z,101952.94
2018-07-01T20:55:22.573Z,101958.40
2018-07-01T20:58:26.958Z,101961.28
2018-07-01T21:01:31.330Z,101962.59
2018-07-01T21:04:35.739Z,101960.29
2018-07-01T21:07:40.096Z,101972.27
2018-07-01T21:10:44.465Z,101976.52
2018-07-01T21:13:48.864Z,101971.63
2018-07-01T21:16:53.270Z,101968.96
2018-07-01T21:19:57.626Z,101966.81
2018-07-01T21:23:02.040Z,101969.00
2018-07-01T21:26:07.189Z,101971.63
2018-07-01T21:29:11.889Z,101969.59
2018-07-01T21:32:16.259Z,101967.00
2018-07-01T21:35:20.629Z,101957.41
2018-07-01T21:38:25.074Z,101964.58
2018-07-01T21:41:29.408Z,101958.06
2018-07-01T21:44:33.846Z,101962.84
2018-07-01T21:47:38.443Z,101960.59
2018-07-01T21:50:42.841Z,101967.40
2018-07-01T21:53:47.222Z,101963.47
2018-07-01T21:56:52.350Z,101964.70
2018-07-01T21:59:56.741Z,101966.78
2018-07-01T22:03:02.697Z,101975.16
2018-07-01T22:06:07.924Z,101970.94
2018-07-01T22:09:12.269Z,101962.44
2018-07-01T22:12:33.611Z,101967.02
2018-07-01T22:15:54.850Z,101960.63
2018-07-01T22:18:59.345Z,101963.31
2018-07-01T22:22:03.900Z,101960.14
2018-07-01T22:25:08.264Z,101969.77
2018-07-01T22:28:12.657Z,101966.55
2018-07-01T22:31:17.029Z,101966.34
2018-07-01T22:34:21.835Z,101970.11
2018-07-01T22:37:26.240Z,101971.23
2018-07-01T22:40:30.612Z,101973.23
2018-07-01T22:43:35.017Z,101976.67
2018-07-01T22:46:39.537Z,101982.28
2018-07-01T22:49:43.939Z,101979.88
2018-07-01T22:52:48.326Z,101979.09
2018-07-01T22:55:52.728Z,101979.09
2018-07-01T22:58:57.113Z,101974.44
2018-07-01T23:03:16.400Z,101976.94
2018-07-01T23:06:20.784Z,101970.96
2018-07-01T23:09:25.154Z,101971.71
2018-07-01T23:12:29.532Z,101963.66
2018-07-01T23:15:33.918Z,101959.15
2018-07-01T23:18:38.308Z,101958.46
2018-07-01T23:21:42.724Z,101956.63
2018-07-01T23:24:47.117Z,101953.94
2018-07-01T23:27:51.537Z,101950.95
2018-07-01T23:30:55.900Z,101951.30
2018-07-01T23:34:00.303Z,101950.83
2018-07-01T23:37:04.768Z,101946.26
2018-07-01T23:40:09.977Z,101949.89
2018-07-01T23:43:14.367Z,101945.90
2018-07-01T23:46:18.762Z,101954.48
2018-07-01T23:49:23.168Z,101954.52
2018-07-01T23:52:27.560Z,101954.04
2018-07-01T23:55:31.945Z,101956.95
2018-07-01T23:58:36.329Z,101959.87
